createdAt,value
2023-02-11T00:02:17.418Z,101481.13
2023-02-11T00:04:45.366Z,101475.72
2023-02-11T00:07:13.048Z,101476.22
2023-02-11T00:09:40.620Z,101472.59
2023-02-11T00:12:08.549Z,101461.09
2023-02-11T00:14:36.154Z,101461.41
2023-02-11T00:17:03.833Z,101469.78
2023-02-11T00:19:32.130Z,101462.22
2023-02-11T00:21:59.778Z,101461.09
2023-02-11T00:24:27.353Z,101469.12
2023-02-11T00:26:55.244Z,101460.94
2023-02-11T00:29:22.910Z,101464.88
2023-02-11T00:31:50.718Z,101473.75
2023-02-11T00:34:18.855Z,101458.78
2023-02-11T00:36:46.470Z,101451.53
2023-02-11T00:39:15.530Z,101455.97
2023-02-11T00:41:43.440Z,101455.31
2023-02-11T00:44:13.450Z,101446.13
2023-02-11T00:46:41.207Z,101448.91
2023-02-11T00:49:11.526Z,101447.09
2023-02-11T00:51:39.394Z,101455.47
2023-02-11T00:54:07.325Z,101459.91
2023-02-11T00:56:35.505Z,101454.66
2023-02-11T00:59:03.528Z,101456.31
2023-02-11T01:01:31.251Z,101448.25
2023-02-11T01:03:59.317Z,101445.78
2023-02-11T01:06:26.896Z,101440.53
2023-02-11T01:08:54.689Z,101435.94
2023-02-11T01:11:22.785Z,101436.41
2023-02-11T01:13:50.870Z,101428.69
2023-02-11T01:16:20.049Z,101415.22
2023-02-11T01:18:48.237Z,101412.09
2023-02-11T01:21:18.461Z,101404.19
2023-02-11T01:23:46.184Z,101411.91
2023-02-11T01:26:14.221Z,101406.00
2023-02-11T01:28:41.825Z,101408.62
2023-02-11T01:31:09.727Z,101391.84
2023-02-11T01:33:37.631Z,101399.63
2023-02-11T01:36:07.134Z,101391.22
2023-02-11T01:38:35.553Z,101390.72
2023-02-11T01:41:09.596Z,101399.75
2023-02-11T01:43:41.958Z,101397.94
2023-02-11T01:46:25.067Z,101402.72
2023-02-11T01:48:59.817Z,101406.66
2023-02-11T01:51:35.778Z,101404.50
2023-02-11T01:54:04.767Z,101398.12
2023-02-11T01:56:35.165Z,101400.25
2023-02-11T01:59:07.974Z,101387.25
2023-02-11T02:01:39.027Z,101391.03
2023-02-11T02:04:08.460Z,101389.72
2023-02-11T02:06:52.050Z,101386.91
2023-02-11T02:09:26.658Z,101384.28
2023-02-11T02:11:54.418Z,101388.22
2023-02-11T02:14:22.448Z,101387.06
2023-02-11T02:16:50.610Z,101384.91
2023-02-11T02:19:27.459Z,101385.41
2023-02-11T02:22:17.117Z,101381.00
2023-02-11T02:25:03.537Z,101371.97
2023-02-11T02:27:59.957Z,101374.28
2023-02-11T02:31:01.859Z,101380.50
2023-02-11T02:34:02.152Z,101380.84
2023-02-11T02:36:32.361Z,101372.97
2023-02-11T02:39:08.126Z,101375.94
2023-02-11T02:41:37.860Z,101371.16
2023-02-11T02:44:07.728Z,101368.03
2023-02-11T02:46:36.491Z,101371.19
2023-02-11T02:49:06.442Z,101376.28
2023-02-11T02:51:37.573Z,101377.09
2023-02-11T02:54:34.882Z,101369.37
2023-02-11T02:57:38.035Z,101375.91
2023-02-11T03:00:08.801Z,101369.00
2023-02-11T03:02:55.288Z,101362.28
2023-02-11T03:05:46.927Z,101356.84
2023-02-11T03:08:53.175Z,101360.16
2023-02-11T03:11:22.046Z,101370.50
2023-02-11T03:13:50.855Z,101368.03
2023-02-11T03:16:22.142Z,101368.69
2023-02-11T03:18:57.042Z,101367.88
2023-02-11T03:21:25.396Z,101363.75
2023-02-11T03:23:54.846Z,101355.72
2023-02-11T03:26:29.557Z,101359.50
2023-02-11T03:29:06.599Z,101360.31
2023-02-11T03:31:42.124Z,101358.34
2023-02-11T03:34:13.320Z,101345.53
2023-02-11T03:36:53.744Z,101348.31
2023-02-11T03:39:25.658Z,101348.16
2023-02-11T03:41:55.167Z,101339.78
2023-02-11T03:44:25.441Z,101332.22
2023-02-11T03:46:54.140Z,101331.91
2023-02-11T03:49:23.494Z,101316.78
2023-02-11T03:51:53.134Z,101316.28
2023-02-11T03:54:26.299Z,101308.56
2023-02-11T03:56:57.555Z,101306.75
2023-02-11T03:59:25.651Z,101309.72
2023-02-11T04:01:53.619Z,101307.75
2023-02-11T04:04:21.574Z,101303.16
2023-02-11T04:06:49.239Z,101287.22
2023-02-11T04:09:17.489Z,101286.22
2023-02-11T04:11:45.852Z,101285.22
2023-02-11T04:14:13.507Z,101285.72
2023-02-11T04:16:41.154Z,101289.00
2023-02-11T04:19:09.122Z,101277.06
2023-02-11T04:21:36.704Z,101277.34
2023-02-11T04:24:04.493Z,101270.78
2023-02-11T04:26:32.775Z,101276.03
2023-02-11T04:29:00.618Z,101267.84
2023-02-11T04:31:28.552Z,101260.94
2023-02-11T04:33:56.763Z,101268.50
2023-02-11T04:36:24.431Z,101267.50
2023-02-11T04:38:52.175Z,101264.06
2023-02-11T04:41:20.085Z,101265.84
2023-02-11T04:43:47.650Z,101263.19
2023-02-11T04:46:15.435Z,101266.81
2023-02-11T04:48:43.329Z,101260.25
2023-02-11T04:51:11.624Z,101262.38
2023-02-11T04:53:39.262Z,101259.91
2023-02-11T04:56:07.184Z,101257.63
2023-02-11T04:58:35.228Z,101260.56
2023-02-11T05:01:15.099Z,101262.22
2023-02-11T05:03:43.353Z,101265.16
2023-02-11T05:06:11.463Z,101269.25
2023-02-11T05:08:39.517Z,101264.34
2023-02-11T05:11:13.040Z,101267.47
2023-02-11T05:13:40.683Z,101270.25
2023-02-11T05:16:08.578Z,101272.72
2023-02-11T05:18:41.576Z,101273.56
2023-02-11T05:21:12.020Z,101271.09
2023-02-11T05:23:39.829Z,101280.75
2023-02-11T05:26:08.038Z,101278.44
2023-02-11T05:28:36.501Z,101277.78
2023-02-11T05:31:04.538Z,101281.72
2023-02-11T05:33:32.264Z,101271.88
2023-02-11T05:36:01.450Z,101281.25
2023-02-11T05:38:29.115Z,101280.09
2023-02-11T05:40:57.634Z,101279.44
2023-02-11T05:43:25.623Z,101264.66
2023-02-11T05:45:53.655Z,101265.16
2023-02-11T05:48:21.476Z,101267.28
2023-02-11T05:50:49.329Z,101258.91
2023-02-11T05:53:17.030Z,101258.59
2023-02-11T05:55:44.896Z,101253.53
2023-02-11T05:58:12.959Z,101249.09
2023-02-11T06:00:40.834Z,101254.69
2023-02-11T06:03:08.944Z,101252.41
2023-02-11T06:05:36.563Z,101256.00
2023-02-11T06:08:04.479Z,101255.19
2023-02-11T06:10:32.820Z,101261.59
2023-02-11T06:13:01.529Z,101258.81
2023-02-11T06:15:29.203Z,101264.03
2023-02-11T06:17:57.519Z,101253.56
2023-02-11T06:20:25.306Z,101260.94
2023-02-11T06:22:52.917Z,101264.72
2023-02-11T06:25:20.943Z,101261.91
2023-02-11T06:27:48.620Z,101262.44
2023-02-11T06:30:16.289Z,101261.63
2023-02-11T06:32:45.734Z,101259.81
2023-02-11T06:35:14.469Z,101252.91
2023-02-11T06:37:42.416Z,101246.34
2023-02-11T06:40:11.204Z,101243.87
2023-02-11T06:42:38.885Z,101249.94
2023-02-11T06:45:07.744Z,101240.09
2023-02-11T06:47:35.813Z,101250.91
2023-02-11T06:50:03.864Z,101249.75
2023-02-11T06:52:31.524Z,101245.62
2023-02-11T06:54:59.675Z,101244.31
2023-02-11T06:57:27.359Z,101246.78
2023-02-11T06:59:55.045Z,101251.22
2023-02-11T07:02:23.001Z,101251.84
2023-02-11T07:04:51.036Z,101245.16
2023-02-11T07:07:18.719Z,101240.25
2023-02-11T07:09:46.774Z,101236.25
2023-02-11T07:12:14.464Z,101225.06
2023-02-11T07:14:42.213Z,101229.91
2023-02-11T07:17:10.115Z,101229.69
2023-02-11T07:19:37.806Z,101234.50
2023-02-11T07:22:05.507Z,101250.19
2023-02-11T07:24:33.564Z,101249.12
2023-02-11T07:27:01.343Z,101241.59
2023-02-11T07:29:29.085Z,101240.09
2023-02-11T07:31:57.135Z,101238.97
2023-02-11T07:34:25.194Z,101237.56
2023-02-11T07:36:52.818Z,101235.56
2023-02-11T07:39:21.076Z,101242.12
2023-02-11T07:41:49.562Z,101239.28
2023-02-11T07:44:17.528Z,101242.53
2023-02-11T07:46:45.717Z,101243.87
2023-02-11T07:49:13.623Z,101233.03
2023-02-11T07:51:41.474Z,101227.44
2023-02-11T07:54:10.444Z,101234.13
2023-02-11T07:56:37.980Z,101229.41
2023-02-11T07:59:05.772Z,101221.56
2023-02-11T08:01:34.405Z,101219.59
2023-02-11T08:04:03.396Z,101221.81
2023-02-11T08:06:33.587Z,101211.34
2023-02-11T08:09:06.393Z,101211.34
2023-02-11T08:11:35.310Z,101211.94
2023-02-11T08:14:02.992Z,101220.56
2023-02-11T08:16:35.482Z,101220.00
2023-02-11T08:19:11.099Z,101205.56
2023-02-11T08:21:39.688Z,101206.66
2023-02-11T08:24:08.072Z,101210.06
2023-02-11T08:26:35.937Z,101214.56
2023-02-11T08:29:09.605Z,101227.97
2023-02-11T08:31:40.364Z,101221.19
2023-02-11T08:34:08.412Z,101232.88
2023-02-11T08:36:37.762Z,101221.25
2023-02-11T08:39:18.528Z,101220.53
2023-02-11T08:41:49.256Z,101225.91
2023-02-11T08:44:18.729Z,101223.72
2023-02-11T08:46:47.155Z,101222.53
2023-02-11T08:49:15.592Z,101210.72
2023-02-11T08:51:43.562Z,101213.63
2023-02-11T08:54:11.569Z,101221.38
2023-02-11T08:56:39.610Z,101211.06
2023-02-11T08:59:08.492Z,101210.50
2023-02-11T09:01:36.290Z,101210.53
2023-02-11T09:04:04.348Z,101217.59
2023-02-11T09:06:32.647Z,101205.97
2023-02-11T09:09:01.731Z,101217.09
2023-02-11T09:11:32.940Z,101212.69
2023-02-11T09:14:01.828Z,101211.25
2023-02-11T09:16:31.844Z,101207.88
2023-02-11T09:19:01.284Z,101210.16
2023-02-11T09:21:29.694Z,101205.47
2023-02-11T09:23:57.815Z,101197.56
2023-02-11T09:26:28.506Z,101196.94
2023-02-11T09:28:57.082Z,101199.22
2023-02-11T09:31:26.855Z,101194.66
2023-02-11T09:33:58.628Z,101181.72
2023-02-11T09:36:29.283Z,101182.94
2023-02-11T09:38:58.907Z,101177.41
2023-02-11T09:41:52.510Z,101177.31
2023-02-11T09:44:23.252Z,101173.88
2023-02-11T09:47:29.859Z,101172.91
2023-02-11T09:50:02.247Z,101167.94
2023-02-11T09:52:33.356Z,101174.28
2023-02-11T09:55:05.558Z,101168.47
2023-02-11T09:57:35.360Z,101172.97
2023-02-11T10:00:16.195Z,101168.81
2023-02-11T10:03:08.221Z,101170.69
2023-02-11T10:05:47.540Z,101178.28
2023-02-11T10:08:35.851Z,101171.94
2023-02-11T10:11:22.627Z,101166.75
2023-02-11T10:14:21.755Z,101159.22
2023-02-11T10:17:19.375Z,101149.56
2023-02-11T10:20:16.807Z,101147.00
2023-02-11T10:22:50.418Z,101136.28
2023-02-11T10:25:26.112Z,101135.84
2023-02-11T10:27:57.266Z,101132.22
2023-02-11T10:30:31.183Z,101140.19
2023-02-11T10:33:16.238Z,101133.94
2023-02-11T10:35:44.048Z,101133.09
2023-02-11T10:38:12.052Z,101129.59
2023-02-11T10:40:39.797Z,101122.59
2023-02-11T10:43:14.235Z,101114.75
2023-02-11T10:45:50.422Z,101112.84
2023-02-11T10:48:51.628Z,101113.81
2023-02-11T10:51:20.857Z,101107.41
2023-02-11T10:53:51.457Z,101101.22
2023-02-11T10:56:27.051Z,101090.59
2023-02-11T10:59:00.977Z,101085.53
2023-02-11T11:01:42.457Z,101090.44
2023-02-11T11:04:28.818Z,101091.50
2023-02-11T11:07:26.768Z,101074.56
2023-02-11T11:09:57.418Z,101072.69
2023-02-11T11:12:46.303Z,101074.66
2023-02-11T11:15:16.070Z,101064.28
2023-02-11T11:17:43.751Z,101068.09
2023-02-11T11:20:20.001Z,101056.66
2023-02-11T11:22:49.499Z,101049.31
2023-02-11T11:25:38.055Z,101044.59
2023-02-11T11:28:06.316Z,101050.75
2023-02-11T11:30:39.736Z,101035.28
2023-02-11T11:33:22.039Z,101028.47
2023-02-11T11:36:02.138Z,101024.97
2023-02-11T11:38:31.133Z,101029.03
2023-02-11T11:41:26.181Z,101024.91
2023-02-11T11:43:58.708Z,101013.88
2023-02-11T11:46:33.534Z,101001.00
2023-02-11T11:49:28.124Z,101003.06
2023-02-11T11:52:20.936Z,101007.69
2023-02-11T11:55:05.407Z,101001.66
2023-02-11T11:57:37.500Z,100996.31
2023-02-11T12:00:06.671Z,100990.41
2023-02-11T12:03:03.476Z,100988.66
2023-02-11T12:05:46.634Z,100982.91
2023-02-11T12:08:30.807Z,100993.88
2023-02-11T12:11:08.153Z,100979.25
2023-02-11T12:13:38.548Z,100985.28
2023-02-11T12:16:25.843Z,100975.00
2023-02-11T12:19:31.586Z,100960.13
2023-02-11T12:22:26.601Z,100950.97
2023-02-11T12:25:20.612Z,100939.19
2023-02-11T12:28:11.331Z,100957.22
2023-02-11T12:30:48.475Z,100933.06
2023-02-11T12:40:27.422Z,100924.53
2023-02-11T12:43:10.863Z,100924.53
2023-02-11T12:45:53.682Z,100920.16
2023-02-11T12:48:35.716Z,100905.16
2023-02-11T12:51:13.089Z,100910.47
2023-02-11T12:54:29.681Z,100905.28
2023-02-11T12:57:00.278Z,100889.53
2023-02-11T12:59:43.190Z,100891.44
2023-02-11T13:02:40.064Z,100892.38
2023-02-11T13:05:32.260Z,100889.66
2023-02-11T13:08:25.522Z,100896.62
2023-02-11T13:10:59.344Z,100889.16
2023-02-11T13:13:46.749Z,100886.50
2023-02-11T13:16:48.243Z,100881.69
2023-02-11T13:19:23.377Z,100884.53
2023-02-11T13:21:53.921Z,100879.34
2023-02-11T13:24:48.100Z,100884.37
2023-02-11T13:27:34.735Z,100875.59
2023-02-11T13:30:29.008Z,100864.19
2023-02-11T13:32:56.949Z,100856.44
2023-02-11T13:35:41.235Z,100844.81
2023-02-11T13:38:26.581Z,100848.81
2023-02-11T13:41:20.497Z,100847.19
2023-02-11T13:44:02.125Z,100828.47
2023-02-11T13:46:49.663Z,100828.22
2023-02-11T13:49:20.296Z,100817.84
2023-02-11T13:51:48.396Z,100825.19
2023-02-11T13:54:37.293Z,100830.97
2023-02-11T13:57:23.650Z,100834.88
2023-02-11T13:59:57.142Z,100831.94
2023-02-11T14:02:36.745Z,100834.25
2023-02-11T14:05:04.735Z,100830.13
2023-02-11T14:07:33.854Z,100828.25
2023-02-11T14:10:01.502Z,100827.63
2023-02-11T14:12:34.147Z,100850.53
2023-02-11T14:15:11.054Z,100852.09
2023-02-11T14:17:39.148Z,100847.66
2023-02-11T14:20:36.858Z,100838.03
2023-02-11T14:23:06.835Z,100839.06
2023-02-11T14:25:35.942Z,100836.13
2023-02-11T14:28:15.329Z,100812.19
2023-02-11T14:31:08.319Z,100817.72
2023-02-11T14:33:58.947Z,100818.56
2023-02-11T14:37:04.072Z,100813.53
2023-02-11T14:40:09.325Z,100830.56
2023-02-11T14:42:38.096Z,100827.44
2023-02-11T14:45:09.207Z,100829.06
2023-02-11T14:47:50.734Z,100848.91
2023-02-11T14:50:33.975Z,100846.25
2023-02-11T14:53:03.069Z,100846.34
2023-02-11T14:55:34.375Z,100848.06
2023-02-11T14:58:23.652Z,100854.00
2023-02-11T15:01:01.809Z,100846.72
2023-02-11T15:03:29.867Z,100846.63
2023-02-11T15:06:07.529Z,100841.09
2023-02-11T15:08:38.272Z,100838.19
2023-02-11T15:11:12.611Z,100815.00
2023-02-11T15:13:40.665Z,100805.56
2023-02-11T15:16:09.630Z,100800.06
2023-02-11T15:18:41.045Z,100800.16
2023-02-11T15:21:09.689Z,100794.03
2023-02-11T15:23:37.679Z,100797.47
2023-02-11T15:26:17.809Z,100795.31
2023-02-11T15:28:46.818Z,100788.50
2023-02-11T15:31:17.084Z,100785.09
2023-02-11T15:33:45.559Z,100781.19
2023-02-11T15:36:15.023Z,100783.47
2023-02-11T15:38:43.143Z,100784.78
2023-02-11T15:41:37.056Z,100787.28
2023-02-11T15:44:05.028Z,100783.19
2023-02-11T15:46:37.893Z,100783.00
2023-02-11T15:49:05.998Z,100785.75
2023-02-11T15:51:37.110Z,100782.63
2023-02-11T15:54:08.409Z,100774.59
2023-02-11T15:56:39.582Z,100773.78
2023-02-11T15:59:11.732Z,100769.91
2023-02-11T16:01:40.120Z,100778.56
2023-02-11T16:04:17.211Z,100772.66
2023-02-11T16:06:45.329Z,100775.75
2023-02-11T16:09:13.360Z,100773.88
2023-02-11T16:11:47.512Z,100762.41
2023-02-11T16:14:28.904Z,100752.81
2023-02-11T16:17:20.665Z,100754.44
2023-02-11T16:19:50.810Z,100744.00
2023-02-11T16:22:29.855Z,100748.44
2023-02-11T16:24:59.466Z,100743.28
2023-02-11T16:27:29.789Z,100738.81
2023-02-11T16:29:58.748Z,100746.38
2023-02-11T16:32:28.423Z,100735.66
2023-02-11T16:34:58.613Z,100743.31
2023-02-11T16:37:27.227Z,100745.16
2023-02-11T16:39:56.122Z,100747.00
2023-02-11T16:42:24.420Z,100737.03
2023-02-11T16:44:52.677Z,100739.38
2023-02-11T16:47:24.568Z,100745.81
2023-02-11T16:49:53.068Z,100760.66
2023-02-11T16:52:21.112Z,100760.84
2023-02-11T16:54:48.790Z,100754.94
2023-02-11T16:57:22.640Z,100742.94
2023-02-11T16:59:52.166Z,100745.69
2023-02-11T17:02:26.277Z,100738.87
2023-02-11T17:04:55.425Z,100741.47
2023-02-11T17:07:24.047Z,100742.88
2023-02-11T17:09:52.009Z,100747.03
2023-02-11T17:12:20.802Z,100742.59
2023-02-11T17:14:49.102Z,100743.75
2023-02-11T17:17:17.340Z,100762.19
2023-02-11T17:19:45.295Z,100759.53
2023-02-11T17:22:13.565Z,100761.03
2023-02-11T17:24:41.524Z,100764.75
2023-02-11T17:27:11.389Z,100761.28
2023-02-11T17:29:39.810Z,100757.66
2023-02-11T17:32:07.717Z,100753.59
2023-02-11T17:34:35.833Z,100767.50
2023-02-11T17:37:03.936Z,100759.75
2023-02-11T17:39:31.875Z,100759.41
2023-02-11T17:41:59.924Z,100749.56
2023-02-11T17:44:28.046Z,100758.72
2023-02-11T17:46:56.052Z,100754.12
2023-02-11T17:49:24.518Z,100761.16
2023-02-11T17:51:52.513Z,100765.87
2023-02-11T17:54:20.761Z,100772.03
2023-02-11T17:56:50.444Z,100772.16
2023-02-11T17:59:19.281Z,100755.72
2023-02-11T18:01:47.133Z,100745.75
2023-02-11T18:04:19.045Z,100738.81
2023-02-11T18:06:47.227Z,100733.91
2023-02-11T18:09:15.550Z,100733.56
2023-02-11T18:11:43.321Z,100727.56
2023-02-11T18:14:11.544Z,100735.06
2023-02-11T18:16:40.014Z,100730.34
2023-02-11T18:19:07.806Z,100725.37
2023-02-11T18:21:35.742Z,100728.47
2023-02-11T18:24:06.780Z,100718.31
2023-02-11T18:26:35.656Z,100720.75
2023-02-11T18:29:04.571Z,100717.84
2023-02-11T18:31:32.228Z,100721.47
2023-02-11T18:33:59.886Z,100716.97
2023-02-11T18:36:28.204Z,100723.88
2023-02-11T18:38:56.002Z,100720.66
2023-02-11T18:41:24.428Z,100719.59
2023-02-11T18:43:52.962Z,100724.47
2023-02-11T18:46:20.644Z,100731.16
2023-02-11T18:48:49.033Z,100729.69
2023-02-11T18:51:18.093Z,100731.97
2023-02-11T18:53:46.500Z,100724.44
2023-02-11T18:56:17.497Z,100738.09
2023-02-11T18:58:46.549Z,100730.94
2023-02-11T19:01:20.729Z,100719.94
2023-02-11T19:03:49.268Z,100729.88
2023-02-11T19:06:19.044Z,100729.75
2023-02-11T19:08:47.371Z,100731.66
2023-02-11T19:11:15.722Z,100730.00
2023-02-11T19:13:44.084Z,100721.81
2023-02-11T19:16:12.243Z,100727.97
2023-02-11T19:18:40.499Z,100736.16
2023-02-11T19:21:10.669Z,100737.19
2023-02-11T19:23:39.469Z,100728.75
2023-02-11T19:26:08.246Z,100734.69
2023-02-11T19:28:36.558Z,100734.78
2023-02-11T19:31:06.937Z,100736.16
2023-02-11T19:33:37.066Z,100731.06
2023-02-11T19:36:08.557Z,100732.81
2023-02-11T19:38:37.047Z,100719.63
2023-02-11T19:41:05.327Z,100718.69
2023-02-11T19:43:33.222Z,100711.50
2023-02-11T19:46:02.455Z,100722.50
2023-02-11T19:48:30.665Z,100723.53
2023-02-11T19:50:59.484Z,100725.88
2023-02-11T19:53:27.845Z,100728.41
2023-02-11T19:55:55.739Z,100731.44
2023-02-11T19:58:23.766Z,100732.00
2023-02-11T20:00:52.301Z,100723.66
2023-02-11T20:03:20.658Z,100714.97
2023-02-11T20:05:48.550Z,100724.00
2023-02-11T20:08:16.677Z,100721.00
2023-02-11T20:10:44.841Z,100713.47
2023-02-11T20:13:12.424Z,100716.59
2023-02-11T20:15:40.493Z,100710.34
2023-02-11T20:18:08.480Z,100710.09
2023-02-11T20:20:38.254Z,100704.53
2023-02-11T20:23:06.242Z,100694.69
2023-02-11T20:25:34.620Z,100692.13
2023-02-11T20:28:04.291Z,100690.75
2023-02-11T20:30:32.226Z,100680.56
2023-02-11T20:33:00.349Z,100688.94
2023-02-11T20:35:28.279Z,100701.84
2023-02-11T20:37:56.249Z,100699.88
2023-02-11T20:40:24.244Z,100688.28
2023-02-11T20:42:52.230Z,100691.75
2023-02-11T20:45:20.259Z,100686.16
2023-02-11T20:47:49.508Z,100685.59
2023-02-11T20:50:17.531Z,100687.87
2023-02-11T20:52:46.579Z,100685.28
2023-02-11T20:55:14.774Z,100681.25
2023-02-11T20:57:42.742Z,100689.53
2023-02-11T21:00:11.001Z,100688.91
2023-02-11T21:02:39.245Z,100681.00
2023-02-11T21:05:07.424Z,100680.72
2023-02-11T21:07:37.062Z,100670.41
2023-02-11T21:10:07.770Z,100678.16
2023-02-11T21:12:35.659Z,100686.91
2023-02-11T21:34:56.835Z,100685.59
2023-02-11T21:37:25.250Z,100671.37
2023-02-11T21:39:53.363Z,100673.53
2023-02-11T21:42:21.812Z,100667.22
2023-02-11T21:44:50.131Z,100658.28
2023-02-11T21:47:18.153Z,100666.09
2023-02-11T21:49:45.895Z,100652.78
2023-02-11T21:52:14.166Z,100656.81
2023-02-11T21:54:41.882Z,100657.47
2023-02-11T21:57:09.905Z,100660.00
2023-02-11T21:59:37.997Z,100648.59
2023-02-11T22:02:06.121Z,100649.72
2023-02-11T22:04:38.899Z,100653.22
2023-02-11T22:07:06.717Z,100672.38
2023-02-11T22:09:34.943Z,100666.53
2023-02-11T22:12:02.751Z,100669.53
2023-02-11T22:14:32.320Z,100660.87
2023-02-11T22:17:00.510Z,100663.78
2023-02-11T22:19:31.733Z,100664.25
2023-02-11T22:21:59.584Z,100660.25
2023-02-11T22:24:27.710Z,100661.41
2023-02-11T22:26:55.509Z,100655.94
2023-02-11T22:29:23.335Z,100659.19
2023-02-11T22:31:51.858Z,100661.75
2023-02-11T22:34:19.602Z,100658.03
2023-02-11T22:36:47.494Z,100663.56
2023-02-11T22:39:16.679Z,100665.91
2023-02-11T22:41:46.235Z,100658.34
2023-02-11T22:44:14.334Z,100669.47
2023-02-11T22:46:42.815Z,100658.94
2023-02-11T22:49:13.789Z,100659.19
2023-02-11T22:51:41.669Z,100649.38
2023-02-11T22:54:13.728Z,100645.31
2023-02-11T22:56:42.025Z,100649.34
2023-02-11T22:59:14.702Z,100660.13
2023-02-11T23:01:43.097Z,100663.50
2023-02-11T23:04:13.916Z,100669.03
2023-02-11T23:06:41.652Z,100652.72
2023-02-11T23:09:10.476Z,100658.16
2023-02-11T23:11:39.137Z,100650.63
2023-02-11T23:14:07.483Z,100647.28
2023-02-11T23:16:35.750Z,100655.94
2023-02-11T23:19:06.724Z,100647.97
2023-02-11T23:21:37.289Z,100649.03
2023-02-11T23:24:10.124Z,100644.41
2023-02-11T23:26:39.667Z,100648.22
2023-02-11T23:29:08.554Z,100637.56
2023-02-11T23:31:38.365Z,100640.69
2023-02-11T23:34:07.164Z,100633.53
2023-02-11T23:36:36.098Z,100634.34
2023-02-11T23:39:04.650Z,100622.75
2023-02-11T23:41:32.528Z,100632.12
2023-02-11T23:44:00.915Z,100634.44
2023-02-11T23:46:28.941Z,100633.97
2023-02-11T23:48:56.814Z,100633.84
2023-02-11T23:51:24.920Z,100631.19
2023-02-11T23:53:52.857Z,100626.44
2023-02-11T23:56:24.913Z,100627.88
2023-02-11T23:58:56.206Z,100629.25
